Brownfield, ME

2:50 AM EST on December 29, 2014 (GMT -0500)
Auburn-Lewiston Municipal | Change Station
CLOSE
Current Station
Airport
Location: Auburn-Lewiston,
Elevation: 289 ft
Nearby Weather Stations

Elev 289 ft 44.05 °N, 70.28 °W | Updated 15 minutes ago

Partly Cloudy
Partly Cloudy
34 °F
Feels Like 29 °F
N
6
Wind Variable Wind from NW

Today
High -- | Low -- °F
--% Chance of Precip.
Yesterday
High -- | Low -- °F
Precip. -- in
7:17 AM 4:13 PM
First Quarter, 56% visible
Pressure 29.98 in
Visibility 10.0 miles
Clouds Few 5000 ft
Windchill 29 °F
Dew Point 12 °F
Humidity 41%
Rainfall 0.00 in
Snow Depth Not available.
UV 0 out of 12
Pollen .10 out of 12
Air Quality Not available.
Flu Activity Not available.
METAR KLEW 290735Z AUTO 32005KT 10SM FEW050 01/M11 A2998 RMK AO1

More Conditions Fewer Conditions

Pressure 29.98 in
Visibility 10.0 miles
Clouds Few 5000 ft
Windchill 29 °F
Dew Point 12 °F
Humidity 41%
Rainfall 0.00 in
Snow Depth Not available.
UV 0 out of 12
Pollen .10 out of 12
Air Quality Not available.
Flu Activity Not available.
METAR KLEW 290735Z AUTO 32005KT 10SM FEW050 01/M11 A2998 RMK AO1

More Conditions Fewer Conditions

10-Day Weather Forecast

Almanac

Astronomy

Dec. 29, 2014 Rise Set
Actual Time
Civil Twilight
Nautical Twilight
Astronomical Twilight
Moon
Length of Visible Light
Length of Day
Tomorrow will be .
, % of the Moon is Illuminated

Today's Extremes

State Highs State Lows

Community

WunderPhotos

Upload Photos

1,781,547 photos uploaded!

WunderBlogs® & News

Nearby

Air Quality

  Air Quality AQ Index Pollutant
Not available.

Snow Depth

Station Depth Elevation

Earthquake Activity

City Distance Mag. Time & Date
Minimum magnitude displayed is 2.5.

Coastal Water Temperatures

Place Temperature

Nearby Weather Stations